Time;durP1;ratioP1;P1;durP2;ratioP2;P2;SDS_P1;SDS_P2;PMS_P1;PMS_P2;Temp;Humidity;BMP_temperature;BMP_pressure;BME280_temperature;BME280_humidity;BME280_pressure;Samples;Min_cycle;Max_cycle;Signal;HPM_P1;HPM_P2
2021/12/10 00:01:54;;;;;;;35.77;15.63;;;-0.70;99.90;;;;;;5050389;28;20675;-77
2021/12/10 00:04:29;;;;;;;36.03;17.17;;;-0.70;99.90;;;;;;5068356;28;20675;-76
2021/12/10 00:07:03;;;;;;;30.40;16.63;;;-0.60;99.90;;;;;;5059196;28;20240;-80
2021/12/10 00:09:33;;;;;;;32.37;15.73;;;-0.60;99.90;;;;;;5058227;28;20217;-79
2021/12/10 00:12:11;;;;;;;35.00;17.27;;;-0.60;99.90;;;;;;5050654;28;20173;-78
2021/12/10 00:14:38;;;;;;;38.13;18.80;;;-0.60;99.90;;;;;;5069481;28;20562;-80
2021/12/10 00:17:06;;;;;;;35.87;18.57;;;-0.50;99.90;;;;;;5069931;28;20193;-77
2021/12/10 00:19:40;;;;;;;35.40;16.90;;;-0.50;99.90;;;;;;5051841;28;20259;-78
2021/12/10 00:22:13;;;;;;;38.47;17.70;;;-0.50;99.90;;;;;;5070112;28;20178;-78
2021/12/10 00:24:40;;;;;;;33.37;18.37;;;-0.50;99.90;;;;;;5051396;28;20221;-80
2021/12/10 00:27:08;;;;;;;36.77;17.83;;;-0.60;99.90;;;;;;5070246;28;20182;-78
2021/12/10 00:29:48;;;;;;;36.70;18.07;;;-0.60;99.90;;;;;;5069423;28;20202;-81
2021/12/10 00:32:23;;;;;;;38.33;17.47;;;-0.60;99.90;;;;;;5060308;28;20824;-79
2021/12/10 00:34:52;;;;;;;41.63;19.27;;;-0.60;99.90;;;;;;5051339;28;20185;-81
2021/12/10 00:37:20;;;;;;;40.80;18.20;;;-0.50;99.90;;;;;;5052147;28;20177;-78
2021/12/10 00:39:53;;;;;;;33.73;16.73;;;-0.50;99.90;;;;;;5051063;28;20213;-81
2021/12/10 00:42:24;;;;;;;41.53;18.23;;;-0.50;99.90;;;;;;5069961;28;20240;-78
2021/12/10 00:44:50;;;;;;;39.27;18.67;;;-0.40;99.90;;;;;;5050958;28;20185;-79
2021/12/10 00:47:16;;;;;;;32.07;16.20;;;-0.50;99.90;;;;;;5069027;28;20188;-79
2021/12/10 00:49:42;;;;;;;37.47;18.03;;;-0.40;99.90;;;;;;5069551;28;20354;-80
2021/12/10 00:52:10;;;;;;;38.63;18.27;;;-0.40;99.90;;;;;;5070138;28;20239;-79
2021/12/10 00:54:36;;;;;;;37.57;17.43;;;-0.40;99.90;;;;;;5051395;28;20697;-78
2021/12/10 00:57:03;;;;;;;38.27;17.87;;;-0.30;99.90;;;;;;5050611;28;20185;-80
2021/12/10 00:59:29;;;;;;;38.27;17.40;;;-0.30;99.90;;;;;;5050726;28;20243;-77
2021/12/10 01:01:55;;;;;;;40.43;17.77;;;-0.30;99.90;;;;;;5051449;28;20628;-79
2021/12/10 01:04:26;;;;;;;40.23;18.10;;;-0.30;99.90;;;;;;5051709;28;20245;-81
2021/12/10 01:06:53;;;;;;;36.07;17.10;;;-0.30;99.90;;;;;;5068469;28;20264;-79
2021/12/10 01:09:31;;;;;;;37.73;17.47;;;-0.20;99.90;;;;;;5067254;28;20651;-79
2021/12/10 01:12:05;;;;;;;37.50;17.80;;;-0.20;99.90;;;;;;5051537;28;20177;-79
2021/12/10 01:26:08;;;;;;;38.10;16.20;;;0.10;99.90;;;;;;5069807;28;20181;-78
2021/12/10 01:28:36;;;;;;;36.17;17.07;;;0.20;99.90;;;;;;5051249;28;20209;-80
2021/12/10 01:31:02;;;;;;;34.67;15.47;;;0.20;99.90;;;;;;5069455;28;20189;-80
2021/12/10 01:33:27;;;;;;;40.27;17.53;;;0.20;99.90;;;;;;5051358;28;20185;-80
2021/12/10 01:35:56;;;;;;;30.50;15.63;;;0.20;99.90;;;;;;5069268;28;20197;-79
2021/12/10 01:38:23;;;;;;;37.13;16.10;;;0.20;99.90;;;;;;5068793;28;20218;-78
2021/12/10 01:40:54;;;;;;;35.67;15.63;;;0.20;99.90;;;;;;5068728;28;20185;-78
2021/12/10 01:43:23;;;;;;;32.33;14.77;;;0.20;99.90;;;;;;5069458;28;20173;-79
2021/12/10 01:45:53;;;;;;;28.67;14.27;;;0.30;99.90;;;;;;5072997;28;20198;-78
2021/12/10 01:48:38;;;;;;;34.57;13.33;;;0.30;99.90;;;;;;5054370;28;20268;-80
2021/12/10 01:51:07;;;;;;;34.87;14.33;;;0.40;99.90;;;;;;5054517;28;20181;-78
2021/12/10 01:53:35;;;;;;;29.80;14.03;;;0.40;99.90;;;;;;5053763;28;20666;-79
2021/12/10 01:56:05;;;;;;;31.80;14.07;;;0.40;99.90;;;;;;5072625;28;20186;-79
2021/12/10 01:58:32;;;;;;;26.27;13.27;;;0.40;99.90;;;;;;5053983;28;20225;-80
2021/12/10 02:01:05;;;;;;;30.30;13.33;;;0.40;99.90;;;;;;5071603;28;20260;-78
2021/12/10 02:03:32;;;;;;;30.70;13.50;;;0.40;99.90;;;;;;5071613;28;20268;-80
2021/12/10 02:05:58;;;;;;;30.03;12.90;;;0.40;99.90;;;;;;5070179;28;20185;-77
2021/12/10 02:08:25;;;;;;;29.30;13.03;;;0.40;99.90;;;;;;5070597;28;20182;-79
2021/12/10 02:10:50;;;;;;;29.67;13.50;;;0.50;99.90;;;;;;5052622;28;20221;-78
2021/12/10 02:13:16;;;;;;;24.80;12.47;;;0.50;99.90;;;;;;5055977;28;20204;-78
2021/12/10 02:15:43;;;;;;;27.17;12.87;;;0.50;99.90;;;;;;5073455;28;20415;-79
2021/12/10 02:18:12;;;;;;;24.97;13.00;;;0.50;99.90;;;;;;5072829;28;20182;-79
2021/12/10 02:20:49;;;;;;;25.80;11.63;;;0.40;99.90;;;;;;5072709;28;20182;-79
2021/12/10 02:23:15;;;;;;;20.20;9.80;;;0.40;99.90;;;;;;5072736;28;20222;-78
2021/12/10 02:25:41;;;;;;;21.07;9.93;;;0.40;99.90;;;;;;5054470;28;20181;-77
2021/12/10 02:28:09;;;;;;;18.13;9.27;;;0.40;99.90;;;;;;5071190;28;20254;-77
2021/12/10 02:30:36;;;;;;;16.53;8.30;;;0.40;99.90;;;;;;5051885;28;20189;-77
2021/12/10 02:33:02;;;;;;;17.03;7.80;;;0.50;99.90;;;;;;5051929;28;20190;-79
2021/12/10 02:35:30;;;;;;;17.27;8.77;;;0.50;99.90;;;;;;5068950;28;20663;-77
2021/12/10 02:37:56;;;;;;;16.07;7.90;;;0.60;99.90;;;;;;5067061;28;20173;-77
2021/12/10 02:40:23;;;;;;;19.17;8.30;;;0.60;99.90;;;;;;5068691;28;20347;-76
2021/12/10 02:42:51;;;;;;;14.20;8.17;;;0.60;99.90;;;;;;5056424;28;20721;-79
2021/12/10 02:45:20;;;;;;;15.43;7.40;;;0.60;99.90;;;;;;5057557;28;20186;-80
2021/12/10 02:47:47;;;;;;;16.60;8.30;;;0.60;99.90;;;;;;5077115;28;20181;-79
2021/12/10 02:50:16;;;;;;;14.50;7.77;;;0.60;99.90;;;;;;5054675;28;20205;-79
2021/12/10 02:52:42;;;;;;;13.07;6.87;;;0.60;99.90;;;;;;5058548;28;20189;-78
2021/12/10 02:55:15;;;;;;;12.13;6.47;;;0.70;99.90;;;;;;5076433;28;20186;-78
2021/12/10 02:57:42;;;;;;;10.80;6.63;;;0.60;99.90;;;;;;5059641;28;20303;-79
2021/12/10 03:00:11;;;;;;;9.90;5.43;;;0.70;99.90;;;;;;5075256;28;20273;-79
2021/12/10 03:02:37;;;;;;;9.67;4.90;;;0.80;99.90;;;;;;5076434;28;20181;-79
2021/12/10 03:05:07;;;;;;;9.13;5.57;;;0.80;99.90;;;;;;5076675;28;20208;-79
2021/12/10 03:07:35;;;;;;;9.97;5.77;;;0.80;99.90;;;;;;5076665;28;20185;-79
2021/12/10 03:10:03;;;;;;;9.67;4.93;;;0.90;99.90;;;;;;5076675;28;21245;-81
2021/12/10 03:12:30;;;;;;;8.00;5.13;;;0.90;99.90;;;;;;5076415;28;20201;-80
2021/12/10 03:14:56;;;;;;;11.43;5.67;;;0.90;99.90;;;;;;5076701;28;20186;-80
2021/12/10 03:17:26;;;;;;;8.87;4.83;;;1.00;99.90;;;;;;5075566;28;20215;-79
2021/12/10 03:19:52;;;;;;;10.67;6.20;;;1.00;99.90;;;;;;5074594;28;20232;-79
2021/12/10 03:22:18;;;;;;;9.47;5.27;;;0.90;99.90;;;;;;5065155;28;20185;-78
2021/12/10 03:24:44;;;;;;;10.33;6.13;;;0.90;99.90;;;;;;5075674;28;20178;-79
2021/12/10 03:27:11;;;;;;;12.00;6.23;;;1.00;99.90;;;;;;5076512;28;20211;-79
2021/12/10 03:29:39;;;;;;;13.73;6.83;;;0.90;99.90;;;;;;5057554;28;20210;-81
2021/12/10 03:32:10;;;;;;;15.67;7.17;;;0.90;99.90;;;;;;5076766;28;20189;-79
2021/12/10 03:34:36;;;;;;;15.87;8.53;;;0.90;99.90;;;;;;5072071;28;20190;-80
2021/12/10 03:37:04;;;;;;;22.20;10.13;;;0.80;99.90;;;;;;5075589;28;20188;-80
2021/12/10 03:39:31;;;;;;;17.70;9.67;;;0.90;99.90;;;;;;5070539;28;20208;-80
2021/12/10 03:41:58;;;;;;;19.27;10.10;;;0.80;99.90;;;;;;5056080;28;20707;-80
2021/12/10 03:44:25;;;;;;;17.87;9.87;;;0.80;99.90;;;;;;5072191;28;20646;-79
2021/12/10 03:46:51;;;;;;;22.90;11.00;;;0.70;99.90;;;;;;5076492;28;20192;-79
2021/12/10 03:49:17;;;;;;;19.90;10.20;;;0.70;99.90;;;;;;5074302;28;20201;-79
2021/12/10 03:51:43;;;;;;;19.13;9.60;;;0.70;99.90;;;;;;5075332;28;20234;-78
2021/12/10 03:54:11;;;;;;;18.20;9.13;;;0.70;99.90;;;;;;5074521;28;20186;-76
2021/12/10 03:56:38;;;;;;;19.57;8.90;;;0.70;99.90;;;;;;5069779;28;21060;-80
2021/12/10 03:59:08;;;;;;;20.90;9.87;;;0.70;99.90;;;;;;5059353;28;20691;-78
2021/12/10 04:01:38;;;;;;;20.13;9.80;;;0.70;99.90;;;;;;5055800;28;20191;-79
2021/12/10 04:04:08;;;;;;;15.73;8.90;;;0.70;99.90;;;;;;5056747;28;20188;-78
2021/12/10 04:06:33;;;;;;;21.67;10.53;;;0.70;99.90;;;;;;5055602;28;20209;-79
2021/12/10 04:09:00;;;;;;;22.10;10.73;;;0.80;99.90;;;;;;5055845;28;20236;-79
2021/12/10 04:11:27;;;;;;;17.63;9.77;;;0.80;99.90;;;;;;5072177;28;20245;-80
2021/12/10 04:13:54;;;;;;;19.53;10.13;;;0.70;99.90;;;;;;5075134;28;20186;-79
2021/12/10 04:16:21;;;;;;;19.50;9.40;;;0.70;99.90;;;;;;5065323;28;20190;-79
2021/12/10 04:18:49;;;;;;;20.00;9.87;;;0.70;99.90;;;;;;5070944;28;20691;-78
2021/12/10 04:21:16;;;;;;;22.17;10.53;;;0.60;99.90;;;;;;5069750;28;20187;-78
2021/12/10 04:23:43;;;;;;;16.80;9.57;;;0.60;99.90;;;;;;5059544;28;20268;-80
2021/12/10 04:26:11;;;;;;;19.67;10.47;;;0.60;99.90;;;;;;5071705;28;20302;-80
2021/12/10 04:28:36;;;;;;;24.10;11.50;;;0.60;99.90;;;;;;5071974;28;20232;-79
2021/12/10 04:31:03;;;;;;;22.20;11.63;;;0.50;99.90;;;;;;5071062;28;20193;-80
2021/12/10 04:33:29;;;;;;;25.37;12.27;;;0.50;99.90;;;;;;5051532;28;20290;-79
2021/12/10 04:35:58;;;;;;;21.33;11.27;;;0.40;99.90;;;;;;5052333;28;20216;-80
2021/12/10 04:38:26;;;;;;;22.70;11.83;;;0.40;99.90;;;;;;5053621;28;20698;-81
2021/12/10 04:40:56;;;;;;;22.50;10.97;;;0.30;99.90;;;;;;5063299;28;20243;-79
2021/12/10 04:43:23;;;;;;;19.80;10.53;;;0.30;99.90;;;;;;5071587;28;20173;-80
2021/12/10 04:45:55;;;;;;;21.67;10.57;;;0.30;99.90;;;;;;5055263;28;20181;-77
2021/12/10 04:48:21;;;;;;;21.23;10.77;;;0.20;99.90;;;;;;5062140;28;20197;-80
2021/12/10 04:50:47;;;;;;;20.00;11.30;;;0.20;99.90;;;;;;5055530;28;20207;-80
2021/12/10 04:53:14;;;;;;;19.63;11.43;;;0.20;99.90;;;;;;5055484;28;20169;-80
2021/12/10 04:55:40;;;;;;;21.90;11.27;;;0.20;99.90;;;;;;5071974;28;20542;-78
2021/12/10 04:58:08;;;;;;;20.13;10.93;;;0.20;99.90;;;;;;5073566;28;20615;-80
2021/12/10 05:00:48;;;;;;;19.37;10.23;;;0.20;99.90;;;;;;5054229;28;20259;-82
2021/12/10 05:03:15;;;;;;;17.53;9.93;;;0.20;99.90;;;;;;5072768;28;20192;-82
2021/12/10 05:05:42;;;;;;;21.07;11.43;;;0.20;99.90;;;;;;5054840;28;20189;-80
2021/12/10 05:08:10;;;;;;;19.83;9.83;;;0.30;99.90;;;;;;5072949;28;20174;-82
2021/12/10 05:10:37;;;;;;;19.33;10.33;;;0.30;99.90;;;;;;5072594;28;20230;-81
2021/12/10 05:13:03;;;;;;;20.50;9.37;;;0.30;99.90;;;;;;5072666;28;20264;-81
2021/12/10 05:15:32;;;;;;;19.87;9.77;;;0.30;99.90;;;;;;5054802;28;20228;-80
2021/12/10 05:17:58;;;;;;;19.00;9.60;;;0.20;99.90;;;;;;5055383;28;20311;-80
2021/12/10 05:20:32;;;;;;;23.73;9.37;;;0.20;99.90;;;;;;5059132;28;20216;-80
2021/12/10 05:22:58;;;;;;;20.67;9.73;;;0.20;99.90;;;;;;5077117;28;20173;-79
2021/12/10 05:25:26;;;;;;;16.63;8.83;;;0.20;99.90;;;;;;5059045;28;20181;-79
2021/12/10 05:27:52;;;;;;;20.17;10.67;;;0.20;99.90;;;;;;5059203;28;20640;-79
2021/12/10 05:30:21;;;;;;;18.27;10.00;;;0.20;99.90;;;;;;5059039;28;20229;-79
2021/12/10 05:32:46;;;;;;;21.37;9.43;;;0.20;99.90;;;;;;5066772;28;20195;-80
2021/12/10 05:35:12;;;;;;;18.37;9.37;;;0.10;99.90;;;;;;5076269;28;20271;-77
2021/12/10 05:37:39;;;;;;;17.27;9.13;;;0.20;99.90;;;;;;5075581;28;20639;-80
2021/12/10 05:40:07;;;;;;;17.63;9.03;;;0.20;99.90;;;;;;5057084;28;20205;-79
2021/12/10 05:42:33;;;;;;;18.30;9.70;;;0.10;99.90;;;;;;5057768;28;20185;-77
2021/12/10 05:44:59;;;;;;;17.63;9.87;;;0.10;99.90;;;;;;5057707;28;20279;-80
2021/12/10 05:47:24;;;;;;;14.63;8.33;;;0.10;99.90;;;;;;5066328;28;20185;-78
2021/12/10 05:49:50;;;;;;;15.40;7.67;;;0.20;99.90;;;;;;5058190;28;20216;-80
2021/12/10 05:52:15;;;;;;;16.93;8.73;;;0.20;99.90;;;;;;5057522;28;20196;-80
2021/12/10 05:54:43;;;;;;;17.77;9.13;;;0.10;99.90;;;;;;5075655;28;20279;-79
2021/12/10 05:57:10;;;;;;;19.50;9.47;;;0.10;99.90;;;;;;5074819;28;20207;-79
2021/12/10 05:59:36;;;;;;;18.17;8.43;;;0.10;99.90;;;;;;5075211;28;20213;-79
2021/12/10 06:02:03;;;;;;;19.77;8.80;;;0.10;99.90;;;;;;5065953;28;20227;-79
2021/12/10 06:04:29;;;;;;;15.97;8.00;;;0.10;99.90;;;;;;5056614;28;20235;-77
2021/12/10 06:06:56;;;;;;;13.30;7.67;;;0.20;99.90;;;;;;5075091;28;20184;-78
2021/12/10 06:09:22;;;;;;;16.13;8.03;;;0.20;99.90;;;;;;5057511;28;20255;-78
2021/12/10 06:11:48;;;;;;;19.33;9.50;;;0.10;99.90;;;;;;5074385;28;20196;-76
2021/12/10 06:14:14;;;;;;;14.53;7.93;;;0.10;99.90;;;;;;5056597;28;20205;-79
2021/12/10 06:16:39;;;;;;;15.00;8.93;;;0.00;99.90;;;;;;5056448;28;20232;-77
2021/12/10 06:19:07;;;;;;;14.47;8.03;;;-0.10;99.90;;;;;;5075180;28;20210;-77
2021/12/10 06:21:33;;;;;;;17.60;9.33;;;0.00;99.90;;;;;;5075161;28;20186;-80
2021/12/10 06:24:00;;;;;;;15.70;8.27;;;-0.10;99.90;;;;;;5056649;28;20668;-79
2021/12/10 06:26:26;;;;;;;15.90;8.60;;;-0.10;99.90;;;;;;5056372;28;20312;-80
2021/12/10 06:28:52;;;;;;;13.47;8.13;;;-0.10;99.90;;;;;;5064387;28;20213;-79
2021/12/10 06:31:20;;;;;;;15.40;8.77;;;-0.10;99.90;;;;;;5055347;28;20182;-78
2021/12/10 06:33:46;;;;;;;16.57;8.50;;;-0.10;99.90;;;;;;5057010;28;20193;-78
2021/12/10 06:36:12;;;;;;;17.77;7.97;;;-0.10;99.90;;;;;;5074600;28;20186;-79
2021/12/10 06:38:38;;;;;;;17.03;8.33;;;-0.10;99.90;;;;;;5056157;28;20209;-80
2021/12/10 06:41:05;;;;;;;18.57;9.87;;;-0.10;99.90;;;;;;5074611;28;20188;-79
2021/12/10 06:43:31;;;;;;;13.93;8.33;;;-0.10;99.90;;;;;;5074506;28;20256;-79
2021/12/10 06:45:57;;;;;;;14.23;7.93;;;-0.10;99.90;;;;;;5073505;28;20210;-79
2021/12/10 06:48:25;;;;;;;17.80;8.87;;;-0.10;99.90;;;;;;5056608;28;20188;-79
2021/12/10 06:50:58;;;;;;;18.97;9.80;;;-0.10;99.90;;;;;;5066005;28;20173;-80
2021/12/10 06:53:26;;;;;;;14.90;8.97;;;-0.10;99.90;;;;;;5054827;28;20570;-77
2021/12/10 06:55:52;;;;;;;17.47;9.50;;;-0.10;99.90;;;;;;5073161;28;20182;-78
2021/12/10 06:58:18;;;;;;;23.67;12.70;;;-0.10;99.90;;;;;;5073541;28;20221;-80
2021/12/10 07:00:57;;;;;;;45.03;26.50;;;-0.10;99.90;;;;;;5066099;28;20205;-82
2021/12/10 07:03:26;;;;;;;20.13;12.17;;;-0.10;99.90;;;;;;5052607;28;20246;-78
2021/12/10 07:05:54;;;;;;;65.10;34.40;;;-0.10;99.90;;;;;;5072327;28;20260;-80
2021/12/10 07:08:22;;;;;;;57.07;31.97;;;0.00;99.90;;;;;;5074009;28;20181;-78
2021/12/10 07:10:48;;;;;;;71.50;37.50;;;0.00;99.90;;;;;;5068320;28;20268;-77
2021/12/10 07:13:15;;;;;;;69.80;39.40;;;-0.10;99.90;;;;;;5054697;28;20587;-77
2021/12/10 07:15:45;;;;;;;76.80;46.93;;;0.00;99.90;;;;;;5064415;28;20190;-81
2021/12/10 07:18:11;;;;;;;37.27;24.33;;;0.00;99.90;;;;;;5053925;28;20228;-78
2021/12/10 07:20:38;;;;;;;152.50;76.33;;;0.00;99.90;;;;;;5069639;28;20225;-78
2021/12/10 07:23:04;;;;;;;31.50;18.67;;;0.10;99.90;;;;;;5068636;28;20182;-78
2021/12/10 07:25:30;;;;;;;97.70;49.03;;;0.10;99.90;;;;;;5051443;28;20399;-78
2021/12/10 07:27:56;;;;;;;42.77;24.60;;;0.10;99.90;;;;;;5051541;28;20266;-80
2021/12/10 07:30:25;;;;;;;29.97;18.90;;;0.10;99.90;;;;;;5061889;28;20694;-78
2021/12/10 07:32:51;;;;;;;13.77;9.73;;;0.20;99.90;;;;;;5069132;28;20274;-78
2021/12/10 07:35:17;;;;;;;11.50;8.43;;;0.20;99.90;;;;;;5068696;28;20269;-77
2021/12/10 07:37:43;;;;;;;13.47;8.80;;;0.30;99.90;;;;;;5068603;28;20600;-79
2021/12/10 07:40:13;;;;;;;11.27;7.60;;;0.30;99.90;;;;;;5050809;28;20548;-77
2021/12/10 07:42:39;;;;;;;14.93;7.10;;;0.30;99.90;;;;;;5067283;28;20189;-80
2021/12/10 07:45:07;;;;;;;12.70;7.30;;;0.40;99.90;;;;;;5068238;28;20316;-79
2021/12/10 07:47:36;;;;;;;12.93;7.17;;;0.40;99.90;;;;;;5067401;28;20186;-78
2021/12/10 07:50:03;;;;;;;10.47;7.17;;;0.40;99.90;;;;;;5067031;28;20198;-78
2021/12/10 07:52:33;;;;;;;12.20;7.60;;;0.40;99.90;;;;;;5067857;28;20356;-78
2021/12/10 07:54:59;;;;;;;13.33;8.37;;;0.40;99.90;;;;;;5048920;28;20670;-78
2021/12/10 07:57:26;;;;;;;14.30;8.73;;;0.40;99.90;;;;;;5067219;28;20216;-79
2021/12/10 07:59:52;;;;;;;13.00;7.63;;;0.30;99.90;;;;;;5066094;28;20206;-79
2021/12/10 08:02:19;;;;;;;12.60;7.93;;;0.40;99.90;;;;;;5051065;28;20254;-78
2021/12/10 08:04:45;;;;;;;14.60;8.83;;;0.40;99.90;;;;;;5047013;28;20281;-80
2021/12/10 08:07:17;;;;;;;14.10;7.83;;;0.40;99.90;;;;;;5065411;28;20835;-81
2021/12/10 08:09:44;;;;;;;9.90;6.60;;;0.40;99.90;;;;;;5047615;28;20240;-80
2021/12/10 08:12:11;;;;;;;13.13;7.20;;;0.40;99.90;;;;;;5047182;28;20192;-79
2021/12/10 08:14:36;;;;;;;11.13;7.20;;;0.50;99.90;;;;;;5047513;28;20247;-79
2021/12/10 08:17:03;;;;;;;12.43;8.40;;;0.50;99.90;;;;;;5047386;28;20595;-80
2021/12/10 08:19:29;;;;;;;14.37;7.10;;;0.60;99.90;;;;;;5064892;28;20213;-79
2021/12/10 08:21:55;;;;;;;10.57;8.07;;;0.60;99.90;;;;;;5046195;28;20197;-79
2021/12/10 08:24:21;;;;;;;11.17;6.80;;;0.60;99.90;;;;;;5047514;28;20185;-80
2021/12/10 08:26:47;;;;;;;12.73;7.93;;;0.60;99.90;;;;;;5064938;28;20281;-80
2021/12/10 08:29:15;;;;;;;10.13;6.63;;;0.70;99.90;;;;;;5062881;28;20284;-81
2021/12/10 08:31:41;;;;;;;11.33;6.50;;;0.80;99.90;;;;;;5047007;28;21140;-77
2021/12/10 08:34:07;;;;;;;9.77;6.47;;;0.80;99.90;;;;;;5061773;28;20221;-80
2021/12/10 08:36:33;;;;;;;11.60;7.53;;;0.80;99.90;;;;;;5040638;28;20663;-77
2021/12/10 08:39:00;;;;;;;12.93;7.27;;;0.90;99.90;;;;;;5058653;28;20930;-79
2021/12/10 08:41:29;;;;;;;9.60;6.53;;;1.00;99.90;;;;;;5041337;28;20182;-79
2021/12/10 08:43:56;;;;;;;10.50;6.60;;;1.20;99.90;;;;;;5051275;28;20264;-80
2021/12/10 08:46:24;;;;;;;8.67;6.30;;;1.30;99.90;;;;;;5042192;28;20227;-80
2021/12/10 08:48:50;;;;;;;9.13;6.00;;;1.30;99.90;;;;;;5060457;28;20284;-77
2021/12/10 08:51:20;;;;;;;10.23;6.33;;;1.40;99.90;;;;;;5043674;28;20261;-82
2021/12/10 08:53:46;;;;;;;10.37;7.17;;;1.50;99.90;;;;;;5042991;28;20263;-79
2021/12/10 08:56:13;;;;;;;11.73;7.70;;;1.50;99.90;;;;;;5043882;28;20222;-80
2021/12/10 08:58:39;;;;;;;9.40;7.03;;;1.60;99.90;;;;;;5043833;28;20785;-81
2021/12/10 09:01:14;;;;;;;13.77;7.70;;;1.60;99.90;;;;;;5043999;28;20578;-80
2021/12/10 09:03:44;;;;;;;10.03;6.97;;;1.60;99.90;;;;;;5062063;28;20216;-81
2021/12/10 09:06:10;;;;;;;9.13;6.53;;;1.60;99.90;;;;;;5043562;28;20178;-78
2021/12/10 09:08:37;;;;;;;12.87;7.13;;;1.70;99.90;;;;;;5043974;28;20213;-82
2021/12/10 09:11:03;;;;;;;8.17;5.90;;;1.90;99.90;;;;;;5043937;28;20205;-76
2021/12/10 09:13:29;;;;;;;10.80;6.77;;;1.90;99.90;;;;;;5042362;28;21034;-78
2021/12/10 09:16:01;;;;;;;10.97;6.30;;;1.80;99.90;;;;;;5042832;28;20251;-78
2021/12/10 09:18:27;;;;;;;12.70;6.70;;;1.90;99.90;;;;;;5043603;28;20288;-78
2021/12/10 09:20:56;;;;;;;7.77;5.97;;;1.90;99.90;;;;;;5061505;28;20626;-77
2021/12/10 09:23:24;;;;;;;8.40;5.83;;;1.80;99.90;;;;;;5043651;28;20264;-80
2021/12/10 09:25:53;;;;;;;8.57;5.83;;;1.90;99.90;;;;;;5043729;28;20186;-79
2021/12/10 09:28:19;;;;;;;10.60;6.33;;;1.90;99.90;;;;;;5042878;28;20650;-79
2021/12/10 09:30:49;;;;;;;12.30;6.60;;;1.80;99.90;;;;;;5060348;28;20189;-77
2021/12/10 09:33:17;;;;;;;10.63;6.97;;;2.00;99.90;;;;;;5042327;28;20181;-76
2021/12/10 09:35:43;;;;;;;10.37;6.03;;;2.10;99.90;;;;;;5046181;28;20264;-77
2021/12/10 09:38:09;;;;;;;9.07;6.93;;;2.20;99.90;;;;;;5044253;28;20216;-78
2021/12/10 09:40:41;;;;;;;12.17;9.80;;;2.30;99.90;;;;;;5045092;28;20850;-76
2021/12/10 09:43:10;;;;;;;11.63;8.23;;;2.40;99.90;;;;;;5045351;28;20178;-77
2021/12/10 09:45:40;;;;;;;11.07;7.77;;;2.40;99.90;;;;;;5045767;28;20189;-76
2021/12/10 09:48:08;;;;;;;13.33;8.13;;;2.40;99.90;;;;;;5045596;28;20227;-80
2021/12/10 09:50:38;;;;;;;16.57;10.47;;;2.40;99.90;;;;;;5045812;28;20205;-77
2021/12/10 09:53:04;;;;;;;14.10;11.50;;;2.20;99.90;;;;;;5045674;28;20643;-78
2021/12/10 09:55:30;;;;;;;12.90;9.67;;;2.20;99.90;;;;;;5045395;28;20253;-78
2021/12/10 09:57:56;;;;;;;12.77;9.40;;;2.30;99.90;;;;;;5045538;28;20292;-77
2021/12/10 10:00:22;;;;;;;12.83;6.87;;;2.30;99.90;;;;;;5045435;28;20213;-78
2021/12/10 10:02:49;;;;;;;11.63;6.30;;;2.30;99.90;;;;;;5045134;28;20643;-78
2021/12/10 10:05:14;;;;;;;10.57;7.13;;;2.30;99.90;;;;;;5047170;28;20268;-78
2021/12/10 10:07:40;;;;;;;11.13;7.20;;;2.20;99.90;;;;;;5049000;28;20285;-77
2021/12/10 10:10:12;;;;;;;8.77;6.40;;;2.00;99.90;;;;;;5067061;28;20205;-79
2021/12/10 10:12:41;;;;;;;11.87;7.40;;;1.90;99.90;;;;;;5049127;28;20707;-78
2021/12/10 10:15:12;;;;;;;13.10;7.40;;;1.70;99.90;;;;;;5045747;28;20185;-77
2021/12/10 10:17:38;;;;;;;10.70;7.10;;;1.50;99.90;;;;;;5047107;28;20276;-77
2021/12/10 10:20:07;;;;;;;9.83;7.07;;;1.50;99.90;;;;;;5069252;28;20273;-79
2021/12/10 10:22:33;;;;;;;11.23;6.40;;;1.50;99.90;;;;;;5058158;28;20686;-80
2021/12/10 10:24:59;;;;;;;11.23;6.83;;;1.60;99.90;;;;;;5069021;28;20181;-79
2021/12/10 10:27:29;;;;;;;12.23;6.77;;;1.80;99.90;;;;;;5050569;28;20913;-78
2021/12/10 10:30:02;;;;;;;11.60;7.67;;;2.00;99.90;;;;;;5050369;28;20684;-81
2021/12/10 10:32:31;;;;;;;10.73;7.40;;;2.20;99.90;;;;;;5050129;28;20268;-79
2021/12/10 10:35:04;;;;;;;9.97;6.70;;;2.40;99.90;;;;;;5068511;28;20185;-77
2021/12/10 10:37:31;;;;;;;12.00;7.77;;;2.60;99.90;;;;;;5059199;28;20780;-78
2021/12/10 10:39:57;;;;;;;10.37;7.30;;;2.80;99.90;;;;;;5049462;28;20205;-78
2021/12/10 10:42:26;;;;;;;10.87;7.33;;;3.00;99.90;;;;;;5050489;28;20212;-79
2021/12/10 10:44:54;;;;;;;9.27;6.83;;;3.30;99.90;;;;;;5060903;28;20197;-80
2021/12/10 10:47:23;;;;;;;11.40;7.63;;;3.50;99.90;;;;;;5068140;28;20205;-79
2021/12/10 10:49:55;;;;;;;9.47;6.03;;;3.50;99.90;;;;;;5068003;28;20197;-80
2021/12/10 10:52:36;;;;;;;8.47;6.00;;;3.50;99.90;;;;;;5068040;28;20232;-80
2021/12/10 10:55:10;;;;;;;8.73;6.77;;;3.50;99.90;;;;;;5068746;28;20177;-82
2021/12/10 10:57:39;;;;;;;8.67;6.13;;;3.30;99.90;;;;;;5067049;28;20207;-79
2021/12/10 11:00:32;;;;;;;8.60;6.07;;;3.20;99.90;;;;;;5066313;28;20204;-80
2021/12/10 11:03:04;;;;;;;7.83;6.27;;;3.20;99.90;;;;;;5048718;28;20521;-79
2021/12/10 11:05:31;;;;;;;9.70;6.40;;;3.00;99.90;;;;;;5047703;28;20534;-78
2021/12/10 11:08:01;;;;;;;11.77;6.10;;;3.10;99.90;;;;;;5047657;28;20185;-77
2021/12/10 11:10:36;;;;;;;8.10;5.80;;;3.10;99.90;;;;;;5065911;28;20198;-77
2021/12/10 11:13:20;;;;;;;8.33;6.53;;;3.10;99.90;;;;;;5065202;28;20208;-80
2021/12/10 11:16:05;;;;;;;10.07;6.83;;;3.10;99.90;;;;;;5061474;28;20177;-77
2021/12/10 11:19:12;;;;;;;9.83;6.27;;;3.00;99.90;;;;;;5043969;28;20189;-77
2021/12/10 11:21:58;;;;;;;11.10;6.80;;;3.00;99.90;;;;;;5040943;28;20193;-79
2021/12/10 11:24:45;;;;;;;10.50;6.50;;;3.00;99.90;;;;;;5044095;28;20186;-78
2021/12/10 11:27:18;;;;;;;8.83;6.70;;;3.00;99.90;;;;;;5044874;28;20181;-79
2021/12/10 11:29:50;;;;;;;10.37;7.07;;;3.10;99.90;;;;;;5044579;28;20233;-78
2021/12/10 11:32:27;;;;;;;8.83;6.60;;;3.20;99.90;;;;;;5062423;28;20193;-79
2021/12/10 11:35:08;;;;;;;11.13;6.53;;;3.40;99.90;;;;;;5064680;28;20177;-79
2021/12/10 11:37:44;;;;;;;9.60;6.33;;;3.50;99.90;;;;;;5066557;28;20181;-79
2021/12/10 11:40:41;;;;;;;9.40;7.03;;;3.40;99.90;;;;;;5048203;28;20212;-78
2021/12/10 11:46:26;;;;;;;10.37;7.73;;;3.60;99.90;;;;;;5066208;28;21280;-77
2021/12/10 11:49:00;;;;;;;9.50;6.33;;;3.60;99.90;;;;;;5066512;28;20255;-78
2021/12/10 11:51:52;;;;;;;8.60;6.23;;;3.50;99.90;;;;;;5056295;28;20177;-77
2021/12/10 11:54:42;;;;;;;8.20;6.20;;;3.50;99.90;;;;;;5048385;28;20170;-79
2021/12/10 11:57:17;;;;;;;11.40;6.80;;;3.40;99.90;;;;;;5066826;28;20181;-80
2021/12/10 11:59:48;;;;;;;9.37;6.53;;;3.20;99.90;;;;;;5047515;28;20223;-80
2021/12/10 12:02:40;;;;;;;9.93;6.03;;;3.20;99.90;;;;;;5048746;28;20173;-78
2021/12/10 12:05:14;;;;;;;10.50;7.77;;;3.20;99.90;;;;;;5053588;28;20182;-76
2021/12/10 12:07:46;;;;;;;8.77;6.17;;;3.10;99.90;;;;;;5048217;28;20658;-77
2021/12/10 12:10:23;;;;;;;10.70;6.73;;;3.10;99.90;;;;;;5044931;28;20208;-77
2021/12/10 12:12:54;;;;;;;11.03;7.30;;;3.00;99.90;;;;;;5047416;28;20688;-77
2021/12/10 12:15:23;;;;;;;12.57;8.37;;;3.00;99.90;;;;;;5065211;28;20196;-78
2021/12/10 12:17:52;;;;;;;21.63;12.97;;;3.00;99.90;;;;;;5065356;28;20218;-80
2021/12/10 12:20:32;;;;;;;13.13;7.63;;;3.10;99.90;;;;;;5064264;28;20591;-79
2021/12/10 12:25:51;;;;;;;11.07;7.60;;;3.20;99.90;;;;;;5062088;28;20232;-80
2021/12/10 12:28:19;;;;;;;11.80;7.87;;;3.20;99.90;;;;;;5061472;28;20630;-78
2021/12/10 12:30:56;;;;;;;10.37;7.50;;;3.30;99.90;;;;;;5043511;28;20461;-78
2021/12/10 12:33:24;;;;;;;9.27;6.43;;;3.40;99.90;;;;;;5061267;28;20242;-77
2021/12/10 12:35:51;;;;;;;8.87;6.03;;;3.40;99.90;;;;;;5043682;28;20209;-78
2021/12/10 12:38:27;;;;;;;9.10;6.07;;;3.40;99.90;;;;;;5043094;28;20213;-78
2021/12/10 12:41:19;;;;;;;9.23;6.03;;;3.60;99.90;;;;;;5042280;28;20207;-77
2021/12/10 12:43:48;;;;;;;8.60;6.17;;;3.50;99.90;;;;;;5057551;28;20193;-80
2021/12/10 12:46:14;;;;;;;9.80;6.33;;;3.60;99.90;;;;;;5056705;28;20648;-79
2021/12/10 12:48:59;;;;;;;9.93;6.57;;;3.50;99.90;;;;;;5059370;28;20208;-79
2021/12/10 12:51:25;;;;;;;7.70;4.90;;;3.60;99.90;;;;;;5039805;28;20663;-79
2021/12/10 12:53:52;;;;;;;8.37;6.13;;;3.50;99.90;;;;;;5059520;28;20192;-78
2021/12/10 12:56:21;;;;;;;7.23;5.10;;;3.50;99.90;;;;;;5040021;28;20530;-76
2021/12/10 12:58:53;;;;;;;8.43;5.43;;;3.50;99.90;;;;;;5047427;28;20213;-78
2021/12/10 13:01:34;;;;;;;10.67;5.93;;;3.50;99.90;;;;;;5052735;28;20240;-78
2021/12/10 13:04:28;;;;;;;10.63;5.10;;;3.60;99.90;;;;;;5033807;28;20339;-77
2021/12/10 13:06:58;;;;;;;9.07;5.90;;;3.70;99.90;;;;;;5038998;28;20231;-81
2021/12/10 13:09:45;;;;;;;9.30;4.63;;;3.80;99.90;;;;;;5039987;28;20257;-77
2021/12/10 13:12:41;;;;;;;6.60;5.13;;;4.10;99.90;;;;;;5059290;28;20276;-77